Keokuk, IA

7:34 AM CST on December 09, 2016 (GMT -0600)
KEOIA | | Change Station

Elev 629 ft 40.40 °N, 91.38 °W | Updated 7 seconds ago

Overcast
Overcast
20.0 °F
Feels Like 20 °F
N
3.0
Wind Variable Wind from NNW
Gusts 6.0 mph

Today
High -- | Low -- °F
--% Chance of Precip.
Yesterday
High -- | Low -- °F
Precip. -- in
Pressure 30.59 in
Visibility 10.0 miles
Clouds Overcast 2200 ft
Windchill 20 °F
Dew Point 13 °F
Humidity 74%
Rainfall 0.00 in
Snow Depth Not available.
7:17 AM 4:38 PM
Waxing Gibbous, 74% visible
METAR KEOK 091315Z AUTO 33005KT 10SM OVC022 M06/M11 A3059 RMK AO2
Pressure 30.59 in
Visibility 10.0 miles
Clouds Overcast 2200 ft
Windchill 20 °F
Dew Point 13 °F
Humidity 74%
Rainfall 0.00 in
Snow Depth Not available.
7:17 AM 4:38 PM
Waxing Gibbous, 74% visible
METAR KEOK 091315Z AUTO 33005KT 10SM OVC022 M06/M11 A3059 RMK AO2

10-Day Weather Forecast

Almanac

Astronomy

Dec. 09, 2016 Rise Set
Actual Time
Civil Twilight
Nautical Twilight
Astronomical Twilight
Moon
Length of Visible Light
Length of Day
Tomorrow will be .
, % of the Moon is Illuminated

Today's Extremes

State Highs State Lows

Community

WunderPhotos

Upload Photos

1,956,407 photos uploaded!

WunderBlog® & News

Nearby

Air Quality

  Air Quality AQ Index Pollutant
Not available.

Snow Depth

Station Depth Elevation

Earthquake Activity

City Distance Mag. Time & Date
Minimum magnitude displayed is 2.5.

Coastal Water Temperatures

Place Temperature

Stations

Nearby Weather Stations

Station Location Temp. Windchill Dew Point Humidity Wind Precip. Elev Updated Type
                   

Watches & Warnings

There are currently no watches in effect.